createdAt,value
2023-04-26T00:00:42.935Z,10.83
2023-04-26T00:03:10.489Z,10.84
2023-04-26T00:05:38.816Z,10.79
2023-04-26T00:08:05.997Z,10.76
2023-04-26T00:10:33.089Z,10.77
2023-04-26T00:13:00.184Z,10.81
2023-04-26T00:15:27.214Z,10.81
2023-04-26T00:17:55.541Z,10.74
2023-04-26T00:20:22.733Z,10.69
2023-04-26T00:22:49.739Z,10.64
2023-04-26T00:25:17.830Z,10.56
2023-04-26T00:27:44.929Z,10.51
2023-04-26T00:30:12.787Z,10.45
2023-04-26T00:32:40.384Z,10.40
2023-04-26T00:35:10.331Z,10.35
2023-04-26T00:37:37.315Z,10.33
2023-04-26T00:40:06.339Z,10.35
2023-04-26T00:42:33.292Z,10.38
2023-04-26T00:45:00.450Z,10.44
2023-04-26T00:47:30.701Z,10.51
2023-04-26T00:49:59.496Z,10.55
2023-04-26T00:52:28.263Z,10.63
2023-04-26T00:54:56.470Z,10.70
2023-04-26T00:57:23.925Z,10.76
2023-04-26T00:59:51.563Z,10.81
2023-04-26T01:02:19.046Z,10.84
2023-04-26T01:04:46.588Z,10.87
2023-04-26T01:07:14.023Z,10.90
2023-04-26T01:09:44.413Z,10.89
2023-04-26T01:12:13.352Z,10.88
2023-04-26T01:14:40.874Z,10.90
2023-04-26T01:17:08.599Z,10.90
2023-04-26T01:19:37.579Z,10.92
2023-04-26T01:22:04.931Z,10.84
2023-04-26T01:24:36.294Z,10.86
2023-04-26T01:27:04.210Z,10.85
2023-04-26T01:29:32.169Z,10.81
2023-04-26T01:31:59.080Z,10.76
2023-04-26T01:34:28.590Z,10.71
2023-04-26T01:36:55.909Z,10.67
2023-04-26T01:39:23.083Z,10.62
2023-04-26T01:41:51.961Z,10.62
2023-04-26T01:44:19.336Z,10.61
2023-04-26T01:46:46.342Z,10.61
2023-04-26T01:49:13.450Z,10.60
2023-04-26T01:51:40.594Z,10.58
2023-04-26T01:54:07.863Z,10.56
2023-04-26T01:56:34.990Z,10.54
2023-04-26T01:59:03.421Z,10.54
2023-04-26T02:01:31.504Z,10.61
2023-04-26T02:03:58.773Z,10.69
2023-04-26T02:06:26.582Z,10.75
2023-04-26T02:08:54.364Z,10.77
2023-04-26T02:11:21.523Z,10.79
2023-04-26T02:13:48.488Z,10.83
2023-04-26T02:16:17.062Z,10.85
2023-04-26T02:18:45.721Z,10.85
2023-04-26T02:21:12.864Z,10.80
2023-04-26T02:23:39.812Z,10.80
2023-04-26T02:26:06.782Z,10.80
2023-04-26T02:28:33.699Z,10.80
2023-04-26T02:31:02.956Z,10.82
2023-04-26T02:33:32.250Z,10.83
2023-04-26T02:35:59.340Z,10.84
2023-04-26T02:38:26.495Z,10.81
2023-04-26T02:40:58.640Z,10.81
2023-04-26T02:43:25.994Z,10.81
2023-04-26T02:45:53.246Z,10.83
2023-04-26T02:48:20.198Z,10.82
2023-04-26T02:50:48.662Z,10.84
2023-04-26T02:53:17.970Z,10.78
2023-04-26T02:55:47.260Z,10.73
2023-04-26T02:58:14.260Z,10.70
2023-04-26T03:00:46.319Z,10.61
2023-04-26T03:03:13.609Z,10.55
2023-04-26T03:05:41.657Z,10.50
2023-04-26T03:08:10.015Z,10.42
2023-04-26T03:10:37.037Z,10.43
2023-04-26T03:13:04.973Z,10.40
2023-04-26T03:15:32.004Z,10.36
2023-04-26T03:17:59.576Z,10.35
2023-04-26T03:20:27.686Z,10.34
2023-04-26T03:22:55.160Z,10.33
2023-04-26T03:25:23.620Z,10.34
2023-04-26T03:27:51.063Z,10.35
2023-04-26T03:30:18.263Z,10.39
2023-04-26T03:32:45.786Z,10.43
2023-04-26T03:35:12.867Z,10.44
2023-04-26T03:37:40.242Z,10.50
2023-04-26T03:40:11.818Z,10.58
2023-04-26T03:42:40.425Z,10.69
2023-04-26T03:45:11.852Z,10.79
2023-04-26T03:47:38.935Z,10.86
2023-04-26T03:50:08.267Z,10.93
2023-04-26T03:52:35.248Z,11.01
2023-04-26T03:55:03.498Z,11.07
2023-04-26T03:57:30.520Z,11.12
2023-04-26T03:59:58.893Z,11.17
2023-04-26T04:02:26.431Z,11.23
2023-04-26T04:04:53.910Z,11.28
2023-04-26T04:07:21.737Z,11.34
2023-04-26T04:09:48.651Z,11.38
2023-04-26T04:12:15.861Z,11.45
2023-04-26T04:14:44.262Z,11.50
2023-04-26T04:17:12.602Z,11.56
2023-04-26T04:19:39.683Z,11.61
2023-04-26T04:22:07.124Z,11.67
2023-04-26T04:24:34.649Z,11.75
2023-04-26T04:27:01.795Z,11.79
2023-04-26T04:29:28.796Z,11.83
2023-04-26T04:31:56.536Z,11.87
2023-04-26T04:34:24.983Z,11.91
2023-04-26T04:36:52.351Z,12.00
2023-04-26T04:39:19.689Z,12.03
2023-04-26T04:41:49.220Z,12.07
2023-04-26T04:44:18.547Z,12.09
2023-04-26T04:46:45.773Z,12.09
2023-04-26T04:49:13.000Z,12.10
2023-04-26T04:51:41.674Z,12.13
2023-04-26T04:54:12.650Z,12.18
2023-04-26T04:56:39.984Z,12.16
2023-04-26T04:59:08.509Z,12.17
2023-04-26T05:01:39.262Z,12.22
2023-04-26T05:04:11.075Z,12.25
2023-04-26T05:06:38.934Z,12.29
2023-04-26T05:09:07.714Z,12.34
2023-04-26T05:11:36.138Z,12.37
2023-04-26T05:14:04.447Z,12.42
2023-04-26T05:16:31.610Z,12.50
2023-04-26T05:19:00.399Z,12.59
2023-04-26T05:21:27.373Z,12.64
2023-04-26T05:23:54.772Z,12.73
2023-04-26T05:26:23.408Z,12.81
2023-04-26T05:29:09.900Z,12.91
2023-04-26T05:31:45.032Z,13.05
2023-04-26T05:34:29.818Z,13.09
2023-04-26T05:36:58.494Z,13.16
2023-04-26T05:39:28.777Z,13.26
2023-04-26T05:41:57.598Z,13.38
2023-04-26T05:44:25.181Z,13.47
2023-04-26T05:46:52.190Z,13.55
2023-04-26T05:49:19.141Z,13.64
2023-04-26T05:51:46.197Z,13.73
2023-04-26T05:54:13.124Z,13.79
2023-04-26T05:56:40.394Z,13.90
2023-04-26T05:59:09.313Z,14.08
2023-04-26T06:01:36.404Z,14.21
2023-04-26T06:04:03.945Z,14.26
2023-04-26T06:06:37.763Z,14.21
2023-04-26T06:09:04.752Z,14.10
2023-04-26T06:11:31.752Z,14.05
2023-04-26T06:13:58.743Z,14.07
2023-04-26T06:16:27.216Z,14.05
2023-04-26T06:18:54.202Z,14.08
2023-04-26T06:21:21.197Z,14.11
2023-04-26T06:23:48.222Z,14.21
2023-04-26T06:26:17.748Z,14.33
2023-04-26T06:28:44.666Z,14.52
2023-04-26T06:31:11.660Z,14.68
2023-04-26T06:33:40.264Z,14.84
2023-04-26T06:36:11.660Z,14.96
2023-04-26T06:38:38.665Z,15.02
2023-04-26T06:41:05.977Z,15.08
2023-04-26T06:43:34.028Z,15.19
2023-04-26T06:46:06.749Z,15.35
2023-04-26T06:48:33.810Z,15.39
2023-04-26T06:51:07.099Z,15.41
2023-04-26T06:53:34.127Z,15.43
2023-04-26T06:56:01.081Z,15.34
2023-04-26T06:58:28.070Z,15.26
2023-04-26T07:00:55.105Z,15.23
2023-04-26T07:03:22.525Z,15.26
2023-04-26T07:05:49.794Z,15.28
2023-04-26T07:08:18.353Z,15.24
2023-04-26T07:10:45.282Z,15.31
2023-04-26T07:13:12.306Z,15.36
2023-04-26T07:15:39.254Z,15.41
2023-04-26T07:18:06.204Z,15.50
2023-04-26T07:20:33.207Z,15.50
2023-04-26T07:23:00.141Z,15.52
2023-04-26T07:25:28.448Z,15.55
2023-04-26T07:27:55.453Z,15.62
2023-04-26T07:30:26.026Z,15.73
2023-04-26T07:32:53.379Z,15.89
2023-04-26T07:35:20.435Z,16.07
2023-04-26T07:37:47.676Z,16.59
2023-04-26T07:40:15.290Z,17.26
2023-04-26T07:42:44.024Z,17.90
2023-04-26T07:45:12.092Z,18.09
2023-04-26T07:47:39.099Z,18.13
2023-04-26T07:50:07.413Z,17.96
2023-04-26T07:52:37.569Z,17.77
2023-04-26T07:55:05.422Z,17.76
2023-04-26T07:57:32.424Z,18.03
2023-04-26T08:00:00.869Z,18.09
2023-04-26T08:02:37.241Z,18.00
2023-04-26T08:05:11.943Z,17.87
2023-04-26T08:07:39.048Z,17.78
2023-04-26T08:10:07.509Z,17.88
2023-04-26T08:12:35.393Z,18.39
2023-04-26T08:15:05.052Z,18.90
2023-04-26T08:17:35.254Z,19.14
2023-04-26T08:20:02.405Z,19.27
2023-04-26T08:22:29.564Z,19.27
2023-04-26T08:24:56.545Z,19.24
2023-04-26T08:27:23.599Z,18.98
2023-04-26T08:29:50.735Z,18.95
2023-04-26T08:32:19.130Z,19.07
2023-04-26T08:34:46.064Z,19.19
2023-04-26T08:37:13.636Z,19.43
2023-04-26T08:39:41.629Z,19.78
2023-04-26T08:42:14.597Z,19.87
2023-04-26T08:44:42.548Z,19.90
2023-04-26T08:47:16.658Z,20.12
2023-04-26T08:49:53.014Z,20.35
2023-04-26T08:52:23.512Z,20.23
2023-04-26T08:54:52.716Z,20.50
2023-04-26T08:57:21.107Z,20.58
2023-04-26T08:59:48.647Z,20.63
2023-04-26T09:02:19.050Z,20.91
2023-04-26T09:04:48.710Z,21.25
2023-04-26T09:07:21.589Z,21.36
2023-04-26T09:09:53.037Z,21.39
2023-04-26T09:12:21.288Z,21.52
2023-04-26T09:14:48.396Z,21.80
2023-04-26T09:17:28.754Z,22.38
2023-04-26T09:19:58.065Z,22.28
2023-04-26T09:22:29.648Z,21.79
2023-04-26T09:24:56.711Z,21.33
2023-04-26T09:27:32.807Z,20.96
2023-04-26T09:30:01.228Z,20.75
2023-04-26T09:32:47.040Z,20.47
2023-04-26T09:35:28.111Z,20.78
2023-04-26T09:38:04.249Z,21.32
2023-04-26T09:40:36.535Z,21.87
2023-04-26T09:43:05.850Z,21.98
2023-04-26T09:45:41.047Z,22.26
2023-04-26T09:48:16.872Z,22.41
2023-04-26T09:50:46.627Z,22.53
2023-04-26T09:53:27.557Z,22.17
2023-04-26T09:55:55.314Z,21.63
2023-04-26T09:58:23.396Z,21.80
2023-04-26T10:00:51.551Z,22.10
2023-04-26T10:03:20.979Z,22.37
2023-04-26T10:05:49.956Z,22.38
2023-04-26T10:08:16.887Z,22.34
2023-04-26T10:10:44.253Z,22.43
2023-04-26T10:13:11.869Z,22.55
2023-04-26T10:15:39.737Z,22.68
2023-04-26T10:18:07.039Z,22.73
2023-04-26T10:20:39.217Z,22.79
2023-04-26T10:23:12.585Z,22.73
2023-04-26T10:25:42.090Z,22.83
2023-04-26T10:28:09.112Z,22.94
2023-04-26T10:30:57.766Z,23.12
2023-04-26T10:33:25.986Z,23.31
2023-04-26T10:36:08.841Z,23.05
2023-04-26T10:38:39.258Z,22.75
2023-04-26T10:41:34.377Z,22.85
2023-04-26T10:44:45.720Z,23.08
2023-04-26T10:47:30.728Z,23.41
2023-04-26T10:50:06.484Z,23.62
2023-04-26T10:52:34.052Z,23.78
2023-04-26T10:55:02.974Z,24.07
2023-04-26T10:57:50.317Z,23.90
2023-04-26T11:02:55.998Z,24.04
2023-04-26T11:05:52.719Z,23.53
2023-04-26T11:08:21.234Z,23.03
2023-04-26T11:11:11.987Z,23.08
2023-04-26T11:13:40.703Z,23.38
2023-04-26T11:16:09.608Z,23.58
2023-04-26T11:18:38.883Z,23.63
2023-04-26T11:21:07.137Z,23.60
2023-04-26T11:23:35.403Z,23.87
2023-04-26T11:26:05.469Z,24.09
2023-04-26T11:28:34.469Z,24.17
2023-04-26T11:31:02.140Z,24.21
2023-04-26T11:33:29.262Z,23.78
2023-04-26T11:35:57.812Z,23.65
2023-04-26T11:38:26.033Z,23.46
2023-04-26T11:40:56.898Z,23.34
2023-04-26T11:43:30.141Z,23.40
2023-04-26T11:46:00.620Z,23.30
2023-04-26T11:48:29.076Z,23.17
2023-04-26T11:50:57.743Z,23.09
2023-04-26T11:53:24.864Z,23.13
2023-04-26T11:55:52.481Z,22.89
2023-04-26T11:58:19.901Z,22.66
2023-04-26T12:00:58.433Z,22.88
2023-04-26T12:03:30.298Z,23.28
2023-04-26T12:05:57.499Z,23.54
2023-04-26T12:08:25.775Z,23.80
2023-04-26T12:10:53.114Z,24.21
2023-04-26T12:13:20.797Z,24.34
2023-04-26T12:15:50.498Z,24.30
2023-04-26T12:18:19.325Z,24.36
2023-04-26T12:20:46.892Z,24.48
2023-04-26T12:23:15.099Z,24.84
2023-04-26T12:25:52.560Z,25.01
2023-04-26T12:28:19.945Z,24.71
2023-04-26T12:30:46.913Z,24.50
2023-04-26T12:33:17.575Z,24.63
2023-04-26T12:35:46.891Z,24.88
2023-04-26T12:38:14.068Z,24.96
2023-04-26T12:40:42.487Z,24.81
2023-04-26T12:43:09.854Z,24.30
2023-04-26T12:45:37.257Z,23.79
2023-04-26T12:48:04.994Z,23.78
2023-04-26T12:50:32.267Z,23.70
2023-04-26T12:53:00.623Z,23.57
2023-04-26T12:55:28.242Z,23.68
2023-04-26T12:57:56.585Z,23.75
2023-04-26T13:00:23.657Z,23.64
2023-04-26T13:02:51.020Z,23.52
2023-04-26T13:05:18.186Z,23.40
2023-04-26T13:07:46.114Z,23.05
2023-04-26T13:10:14.581Z,22.77
2023-04-26T13:12:41.749Z,22.60
2023-04-26T13:15:09.266Z,22.60
2023-04-26T13:17:37.891Z,22.59
2023-04-26T13:20:06.661Z,22.50
2023-04-26T13:22:34.553Z,22.40
2023-04-26T13:25:01.531Z,22.31
2023-04-26T13:27:31.634Z,22.13
2023-04-26T13:29:58.886Z,22.02
2023-04-26T13:32:26.134Z,21.86
2023-04-26T13:34:53.326Z,21.80
2023-04-26T13:37:21.486Z,21.88
2023-04-26T13:39:48.663Z,22.15
2023-04-26T13:42:16.487Z,22.28
2023-04-26T13:44:45.203Z,22.44
2023-04-26T13:47:12.413Z,22.55
2023-04-26T13:49:41.880Z,22.50
2023-04-26T13:52:08.927Z,22.37
2023-04-26T13:54:36.841Z,22.31
2023-04-26T13:57:04.176Z,22.27
2023-04-26T13:59:31.335Z,22.29
2023-04-26T14:02:02.749Z,22.16
2023-04-26T14:04:30.127Z,22.02
2023-04-26T14:06:57.325Z,21.80
2023-04-26T14:09:24.488Z,21.75
2023-04-26T14:12:06.646Z,21.75
2023-04-26T14:14:35.083Z,21.74
2023-04-26T14:17:03.796Z,21.73
2023-04-26T14:19:31.423Z,21.83
2023-04-26T14:21:58.331Z,21.74
2023-04-26T14:24:25.709Z,21.54
2023-04-26T14:26:52.638Z,21.42
2023-04-26T14:29:19.680Z,21.31
2023-04-26T14:31:47.179Z,21.15
2023-04-26T14:34:15.687Z,21.07
2023-04-26T14:36:42.674Z,21.05
2023-04-26T14:39:09.866Z,21.03
2023-04-26T14:41:37.473Z,20.98
2023-04-26T14:44:04.589Z,20.97
2023-04-26T14:46:31.584Z,20.90
2023-04-26T14:48:58.603Z,20.78
2023-04-26T14:51:27.473Z,20.75
2023-04-26T14:53:54.525Z,20.71
2023-04-26T14:56:21.432Z,20.60
2023-04-26T14:58:48.559Z,20.54
2023-04-26T15:01:15.534Z,20.52
2023-04-26T15:03:42.642Z,20.53
2023-04-26T15:06:09.950Z,20.53
2023-04-26T15:08:38.245Z,20.42
2023-04-26T15:11:05.302Z,20.32
2023-04-26T15:13:32.410Z,20.27
2023-04-26T15:16:03.701Z,20.20
2023-04-26T15:18:31.905Z,20.18
2023-04-26T15:20:59.212Z,20.22
2023-04-26T15:23:26.767Z,20.31
2023-04-26T15:25:55.102Z,20.34
2023-04-26T15:28:22.272Z,20.46
2023-04-26T15:30:50.556Z,20.54
2023-04-26T15:33:17.703Z,20.57
2023-04-26T15:35:44.792Z,20.63
2023-04-26T15:38:11.688Z,20.60
2023-04-26T15:40:38.584Z,20.59
2023-04-26T15:43:06.912Z,20.60
2023-04-26T15:45:35.796Z,20.60
2023-04-26T15:48:02.780Z,20.54
2023-04-26T15:50:29.760Z,20.49
2023-04-26T15:52:58.224Z,20.44
2023-04-26T15:55:25.966Z,20.36
2023-04-26T15:57:52.962Z,20.30
2023-04-26T16:00:21.604Z,20.19
2023-04-26T16:02:48.717Z,20.15
2023-04-26T16:05:16.574Z,20.06
2023-04-26T16:07:43.604Z,19.94
2023-04-26T16:10:11.163Z,19.76
2023-04-26T16:12:43.420Z,19.49
2023-04-26T16:15:11.224Z,19.08
2023-04-26T16:17:39.747Z,18.68
2023-04-26T16:20:08.287Z,18.47
2023-04-26T16:22:35.839Z,18.33
2023-04-26T16:25:06.690Z,18.17
2023-04-26T16:27:33.824Z,18.02
2023-04-26T16:30:01.071Z,17.95
2023-04-26T16:32:30.597Z,17.86
2023-04-26T16:34:58.976Z,17.78
2023-04-26T16:37:25.928Z,17.74
2023-04-26T16:39:55.717Z,17.60
2023-04-26T16:42:23.012Z,17.50
2023-04-26T16:44:49.965Z,17.37
2023-04-26T16:47:16.908Z,17.31
2023-04-26T16:49:43.870Z,17.27
2023-04-26T16:52:12.470Z,17.18
2023-04-26T16:54:39.415Z,17.03
2023-04-26T16:57:06.630Z,16.93
2023-04-26T16:59:33.748Z,16.82
2023-04-26T17:02:00.752Z,16.75
2023-04-26T17:04:27.900Z,16.69
2023-04-26T17:06:54.970Z,16.62
2023-04-26T17:09:23.277Z,16.55
2023-04-26T17:11:51.018Z,16.47
2023-04-26T17:14:18.099Z,16.41
2023-04-26T17:16:45.133Z,16.36
2023-04-26T17:19:12.112Z,16.34
2023-04-26T17:21:39.115Z,16.27
2023-04-26T17:24:07.494Z,16.21
2023-04-26T17:26:36.864Z,16.22
2023-04-26T17:29:03.907Z,16.19
2023-04-26T17:31:31.017Z,16.14
2023-04-26T17:33:58.392Z,16.15
2023-04-26T17:36:26.490Z,16.12
2023-04-26T17:38:53.457Z,16.08
2023-04-26T17:41:23.397Z,16.06
2023-04-26T17:43:52.100Z,16.03
2023-04-26T17:46:19.253Z,15.98
2023-04-26T17:48:46.409Z,15.98
2023-04-26T17:51:13.357Z,16.00
2023-04-26T17:53:40.535Z,16.01
2023-04-26T17:56:09.907Z,16.03
2023-04-26T17:58:36.925Z,16.02
2023-04-26T18:01:05.993Z,16.03
2023-04-26T18:03:35.871Z,16.06
2023-04-26T18:06:03.556Z,16.01
2023-04-26T18:08:30.779Z,16.00
2023-04-26T18:10:58.163Z,15.95
2023-04-26T18:13:25.086Z,15.90
2023-04-26T18:15:54.633Z,15.85
2023-04-26T18:18:23.717Z,15.76
2023-04-26T18:20:52.444Z,15.52
2023-04-26T18:23:19.580Z,15.36
2023-04-26T18:25:46.739Z,15.18
2023-04-26T18:28:13.906Z,15.01
2023-04-26T18:30:40.930Z,14.84
2023-04-26T18:33:08.004Z,14.78
2023-04-26T18:35:36.648Z,14.72
2023-04-26T18:38:04.156Z,14.72
2023-04-26T18:40:31.234Z,14.71
2023-04-26T18:42:58.877Z,14.56
2023-04-26T18:45:25.959Z,14.48
2023-04-26T18:47:55.086Z,14.44
2023-04-26T18:50:22.325Z,14.42
2023-04-26T18:52:50.670Z,14.44
2023-04-26T20:52:09.033Z,13.26
2023-04-26T20:54:36.124Z,13.26
2023-04-26T20:57:03.784Z,13.27
2023-04-26T20:59:30.933Z,13.28
2023-04-26T21:01:58.180Z,13.30
2023-04-26T21:04:25.809Z,13.33
2023-04-26T21:06:53.422Z,13.34
2023-04-26T21:09:22.014Z,13.37
2023-04-26T21:11:48.951Z,13.36
2023-04-26T21:14:15.896Z,13.37
2023-04-26T21:16:42.864Z,13.41
2023-04-26T21:19:09.897Z,13.46
2023-04-26T21:21:37.164Z,13.41
2023-04-26T21:24:04.363Z,13.33
2023-04-26T21:26:32.805Z,13.30
2023-04-26T21:28:59.747Z,13.36
2023-04-26T21:31:26.785Z,13.33
2023-04-26T21:33:53.745Z,13.27
2023-04-26T21:36:21.006Z,13.27
2023-04-26T21:38:47.970Z,13.27
2023-04-26T21:41:15.088Z,13.27
2023-04-26T21:43:43.434Z,13.32
2023-04-26T21:46:11.747Z,13.34
2023-04-26T21:48:41.266Z,13.31
2023-04-26T21:51:08.331Z,13.25
2023-04-26T21:53:35.311Z,13.13
2023-04-26T21:56:02.214Z,13.13
2023-04-26T21:58:29.163Z,13.01
2023-04-26T22:01:07.134Z,12.95
2023-04-26T22:03:34.324Z,12.86
2023-04-26T22:06:01.359Z,12.84
2023-04-26T22:08:28.310Z,12.89
2023-04-26T22:10:55.594Z,12.84
2023-04-26T22:13:22.908Z,12.83
2023-04-26T22:15:49.892Z,12.83
2023-04-26T22:18:18.425Z,12.85
2023-04-26T22:20:45.648Z,12.75
2023-04-26T22:23:12.597Z,12.64
2023-04-26T22:25:39.588Z,12.63
2023-04-26T22:28:06.822Z,12.63
2023-04-26T22:30:33.807Z,12.66
2023-04-26T22:33:00.884Z,12.67
2023-04-26T22:35:29.947Z,12.63
2023-04-26T22:37:56.938Z,12.56
2023-04-26T22:40:23.879Z,12.55
2023-04-26T22:42:50.881Z,12.35
2023-04-26T22:45:17.975Z,12.17
2023-04-26T22:47:44.960Z,12.04
2023-04-26T22:50:12.439Z,11.88
2023-04-26T22:52:41.055Z,11.79
2023-04-26T22:55:09.117Z,11.69
2023-04-26T22:57:36.612Z,11.58
2023-04-26T23:00:04.489Z,11.50
2023-04-26T23:02:31.576Z,11.44
2023-04-26T23:04:58.772Z,11.39
2023-04-26T23:07:25.852Z,11.34
2023-04-26T23:09:54.177Z,11.28
2023-04-26T23:12:21.188Z,11.22
2023-04-26T23:14:48.792Z,11.17
2023-04-26T23:17:16.193Z,11.14
2023-04-26T23:19:43.156Z,11.11
2023-04-26T23:22:10.921Z,11.06
2023-04-26T23:24:37.884Z,11.04
2023-04-26T23:27:06.210Z,11.02
2023-04-26T23:29:33.146Z,10.98
2023-04-26T23:32:00.068Z,10.93
2023-04-26T23:34:27.300Z,10.93
2023-04-26T23:36:54.243Z,10.95
2023-04-26T23:39:21.857Z,10.94
2023-04-26T23:41:48.754Z,10.93
2023-04-26T23:44:17.061Z,10.91
2023-04-26T23:46:44.024Z,10.88
2023-04-26T23:49:11.278Z,10.87
2023-04-26T23:51:38.291Z,10.85
2023-04-26T23:54:05.270Z,10.84
2023-04-26T23:56:32.633Z,10.78
2023-04-26T23:58:59.557Z,10.73
